createdAt,value
2018-06-25T00:00:01.419Z,99.90
2018-06-25T00:02:30.785Z,99.90
2018-06-25T00:05:00.208Z,99.90
2018-06-25T00:07:29.592Z,99.90
2018-06-25T00:09:59.118Z,99.90
2018-06-25T00:12:28.811Z,99.90
2018-06-25T00:14:57.906Z,99.90
2018-06-25T00:17:26.987Z,99.90
2018-06-25T00:19:56.099Z,99.90
2018-06-25T00:22:25.192Z,99.90
2018-06-25T00:24:54.713Z,99.90
2018-06-25T00:27:24.218Z,99.90
2018-06-25T00:29:53.313Z,99.90
2018-06-25T00:32:22.428Z,99.90
2018-06-25T00:34:53.035Z,99.90
2018-06-25T00:37:22.122Z,99.90
2018-06-25T00:39:51.507Z,99.90
2018-06-25T00:42:20.638Z,99.90
2018-06-25T00:44:49.875Z,99.90
2018-06-25T00:47:18.995Z,99.90
2018-06-25T00:52:17.011Z,99.90
2018-06-25T00:54:46.137Z,99.90
2018-06-25T00:57:15.226Z,99.90
2018-06-25T00:59:53.323Z,99.90
2018-06-25T01:02:23.382Z,99.90
2018-06-25T01:07:21.723Z,99.90
2018-06-25T01:09:50.862Z,99.90
2018-06-25T01:12:19.952Z,99.90
2018-06-25T01:14:50.344Z,99.90
2018-06-25T01:17:20.329Z,99.90
2018-06-25T01:19:49.522Z,99.90
2018-06-25T01:22:19.264Z,99.90
2018-06-25T01:24:48.382Z,99.90
2018-06-25T01:27:17.476Z,99.90
2018-06-25T01:29:46.602Z,99.90
2018-06-25T01:32:15.702Z,99.90
2018-06-25T01:34:45.095Z,99.90
2018-06-25T01:37:14.222Z,99.90
2018-06-25T01:39:43.330Z,99.90
2018-06-25T01:42:12.871Z,99.90
2018-06-25T01:44:41.971Z,99.90
2018-06-25T01:47:11.083Z,99.90
2018-06-25T01:49:43.597Z,99.90
2018-06-25T01:52:12.698Z,99.90
2018-06-25T01:54:41.826Z,99.90
2018-06-25T01:57:10.938Z,99.90
2018-06-25T01:59:40.034Z,99.90
2018-06-25T02:02:09.194Z,99.90
2018-06-25T02:04:38.291Z,99.90
2018-06-25T02:07:07.382Z,99.90
2018-06-25T02:09:36.483Z,99.90
2018-06-25T02:12:05.603Z,99.90
2018-06-25T02:14:34.714Z,99.90
2018-06-25T02:17:04.247Z,99.90
2018-06-25T02:19:33.378Z,99.90
2018-06-25T02:22:02.491Z,99.90
2018-06-25T02:24:32.487Z,99.90
2018-06-25T02:27:01.798Z,99.90
2018-06-25T02:29:31.538Z,99.90
2018-06-25T02:32:02.460Z,99.90
2018-06-25T02:34:32.152Z,99.90
2018-06-25T02:37:02.082Z,99.90
2018-06-25T02:39:32.330Z,99.90
2018-06-25T02:42:01.901Z,99.90
2018-06-25T02:44:31.758Z,99.90
2018-06-25T02:47:01.116Z,99.90
2018-06-25T02:49:30.874Z,99.90
2018-06-25T02:52:00.722Z,99.90
2018-06-25T02:54:29.975Z,99.90
2018-06-25T02:56:59.775Z,99.90
2018-06-25T02:59:30.308Z,99.90
2018-06-25T03:01:59.410Z,99.90
2018-06-25T03:04:28.495Z,99.90
2018-06-25T03:06:57.642Z,99.90
2018-06-25T03:09:27.600Z,99.90
2018-06-25T03:11:56.767Z,99.90
2018-06-25T03:14:25.885Z,99.90
2018-06-25T03:16:54.947Z,99.90
2018-06-25T03:19:24.043Z,99.90
2018-06-25T03:21:53.651Z,99.90
2018-06-25T03:24:23.018Z,99.90
2018-06-25T03:26:52.139Z,99.90
2018-06-25T03:29:21.235Z,99.90
2018-06-25T03:31:50.363Z,99.90
2018-06-25T03:34:19.473Z,99.90
2018-06-25T03:36:48.542Z,99.90
2018-06-25T03:39:17.664Z,99.90
2018-06-25T03:41:46.743Z,99.90
2018-06-25T03:44:17.414Z,99.90
2018-06-25T03:46:46.491Z,99.90
2018-06-25T03:49:15.573Z,99.90
2018-06-25T03:51:44.674Z,99.90
2018-06-25T03:54:13.838Z,99.90
2018-06-25T03:56:42.947Z,99.90
2018-06-25T03:59:12.495Z,99.90
2018-06-25T04:01:41.727Z,99.90
2018-06-25T04:04:11.042Z,99.90
2018-06-25T04:06:40.808Z,99.90
2018-06-25T04:09:11.267Z,99.90
2018-06-25T04:11:41.150Z,99.90
2018-06-25T04:14:11.108Z,99.90
2018-06-25T04:16:40.210Z,99.90
2018-06-25T04:19:09.278Z,99.90
2018-06-25T04:21:38.515Z,99.90
2018-06-25T04:24:07.838Z,99.90
2018-06-25T04:26:37.043Z,99.90
2018-06-25T04:29:06.378Z,99.90
2018-06-25T04:31:35.698Z,99.90
2018-06-25T04:34:04.790Z,99.90
2018-06-25T04:36:33.906Z,99.90
2018-06-25T04:39:02.980Z,99.90
2018-06-25T04:41:32.292Z,99.90
2018-06-25T04:44:01.444Z,99.90
2018-06-25T04:46:30.552Z,99.90
2018-06-25T04:48:59.629Z,99.90
2018-06-25T04:51:28.816Z,99.90
2018-06-25T04:53:58.622Z,99.90
2018-06-25T04:56:27.686Z,99.90
2018-06-25T04:58:56.798Z,99.90
2018-06-25T05:01:25.883Z,99.90
2018-06-25T05:03:54.940Z,99.90
2018-06-25T05:06:24.039Z,99.90
2018-06-25T05:08:53.126Z,99.90
2018-06-25T05:11:22.242Z,99.90
2018-06-25T05:13:51.322Z,99.90
2018-06-25T05:16:20.413Z,99.90
2018-06-25T05:18:49.499Z,99.90
2018-06-25T05:21:19.258Z,99.90
2018-06-25T05:23:48.384Z,99.90
2018-06-25T05:26:17.458Z,99.90
2018-06-25T05:28:46.759Z,99.90
2018-06-25T05:31:15.955Z,99.90
2018-06-25T05:33:45.883Z,99.90
2018-06-25T05:36:15.427Z,99.90
2018-06-25T05:38:44.854Z,99.90
2018-06-25T05:41:13.939Z,99.90
2018-06-25T05:43:43.096Z,99.90
2018-06-25T05:46:12.994Z,99.90
2018-06-25T05:48:42.072Z,99.90
2018-06-25T05:51:11.278Z,99.90
2018-06-25T05:53:40.420Z,99.90
2018-06-25T05:56:09.634Z,99.90
2018-06-25T05:58:39.166Z,99.90
2018-06-25T06:01:08.288Z,99.90
2018-06-25T06:03:37.491Z,99.90
2018-06-25T06:06:06.687Z,99.90
2018-06-25T06:08:36.326Z,99.90
2018-06-25T06:11:05.418Z,99.90
2018-06-25T06:13:34.535Z,99.90
2018-06-25T06:16:03.629Z,99.90
2018-06-25T06:18:32.758Z,99.90
2018-06-25T06:21:02.346Z,99.90
2018-06-25T06:23:31.435Z,99.90
2018-06-25T06:26:00.530Z,99.90
2018-06-25T06:28:29.611Z,99.90
2018-06-25T06:31:00.013Z,99.90
2018-06-25T06:33:30.406Z,99.90
2018-06-25T06:35:59.505Z,99.90
2018-06-25T06:38:28.598Z,99.90
2018-06-25T06:40:57.710Z,99.40
2018-06-25T06:43:26.799Z,99.00
2018-06-25T06:45:55.891Z,99.00
2018-06-25T06:48:25.015Z,99.60
2018-06-25T06:50:54.098Z,98.60
2018-06-25T06:53:23.225Z,98.40
2018-06-25T06:55:52.566Z,97.70
2018-06-25T06:58:21.660Z,96.90
2018-06-25T07:00:50.729Z,97.10
2018-06-25T07:03:24.778Z,99.10
2018-06-25T07:05:54.851Z,99.70
2018-06-25T07:08:23.975Z,98.70
2018-06-25T07:10:53.071Z,99.30
2018-06-25T07:13:22.202Z,99.20
2018-06-25T07:15:51.454Z,99.50
2018-06-25T07:18:20.902Z,99.90
2018-06-25T07:20:50.129Z,99.90
2018-06-25T07:23:19.195Z,99.90
2018-06-25T07:25:48.304Z,99.90
2018-06-25T07:28:17.430Z,99.90
2018-06-25T07:30:46.506Z,99.90
2018-06-25T07:33:15.582Z,99.30
2018-06-25T07:35:45.419Z,99.60
2018-06-25T07:38:14.731Z,99.90
2018-06-25T07:40:44.215Z,99.90
2018-06-25T07:43:14.099Z,99.90
2018-06-25T07:45:43.203Z,99.90
2018-06-25T07:48:12.294Z,99.90
2018-06-25T07:50:41.422Z,99.90
2018-06-25T07:53:10.630Z,99.90
2018-06-25T07:55:39.819Z,99.90
2018-06-25T07:58:08.911Z,99.90
2018-06-25T08:00:38.032Z,99.90
2018-06-25T08:03:07.177Z,99.90
2018-06-25T08:05:36.267Z,99.90
2018-06-25T08:08:05.351Z,99.90
2018-06-25T08:10:34.484Z,99.90
2018-06-25T08:13:03.607Z,99.90
2018-06-25T08:15:34.316Z,99.90
2018-06-25T08:18:03.402Z,99.90
2018-06-25T08:20:32.563Z,99.90
2018-06-25T08:23:01.678Z,99.90
2018-06-25T08:25:30.751Z,99.90
2018-06-25T08:27:59.830Z,99.90
2018-06-25T08:30:28.926Z,99.90
2018-06-25T08:32:58.002Z,99.90
2018-06-25T08:35:27.119Z,99.90
2018-06-25T08:37:56.986Z,99.90
2018-06-25T08:40:26.281Z,99.90
2018-06-25T08:42:56.023Z,99.80
2018-06-25T08:45:26.414Z,97.80
2018-06-25T08:47:55.855Z,97.20
2018-06-25T08:50:25.787Z,96.90
2018-06-25T08:52:55.758Z,96.70
2018-06-25T08:57:54.690Z,97.00
2018-06-25T09:00:24.419Z,97.80
2018-06-25T09:02:53.779Z,98.00
2018-06-25T09:07:52.478Z,97.50
2018-06-25T09:10:22.217Z,97.60
2018-06-25T09:12:51.731Z,96.90
2018-06-25T09:15:21.202Z,95.10
2018-06-25T09:17:50.809Z,95.30
2018-06-25T09:20:20.798Z,94.80
2018-06-25T09:22:51.071Z,98.20
2018-06-25T09:25:20.174Z,98.70
2018-06-25T09:27:50.271Z,98.10
2018-06-25T09:30:20.450Z,95.10
2018-06-25T09:32:50.191Z,93.30
2018-06-25T09:35:19.575Z,91.20
2018-06-25T09:37:48.842Z,93.50
2018-06-25T09:40:18.330Z,95.30
2018-06-25T09:42:47.718Z,96.20
2018-06-25T09:45:17.086Z,95.30
2018-06-25T09:47:46.476Z,95.00
2018-06-25T09:50:16.315Z,95.20
2018-06-25T09:52:45.651Z,94.60
2018-06-25T09:55:15.399Z,94.00
2018-06-25T09:57:44.749Z,93.10
2018-06-25T10:00:20.998Z,95.80
2018-06-25T10:02:50.094Z,98.10
2018-06-25T10:05:19.178Z,98.80
2018-06-25T10:07:50.752Z,99.20
2018-06-25T10:12:49.554Z,97.90
2018-06-25T10:15:18.934Z,97.20
2018-06-25T10:17:48.222Z,94.40
2018-06-25T10:20:17.671Z,93.00
2018-06-25T10:22:46.802Z,91.50
2018-06-25T10:25:17.251Z,88.00
2018-06-25T10:27:46.838Z,86.50
2018-06-25T10:30:16.659Z,86.80
2018-06-25T10:32:46.592Z,84.60
2018-06-25T10:35:16.491Z,89.80
2018-06-25T10:37:45.818Z,91.50
2018-06-25T10:40:15.234Z,92.20
2018-06-25T10:42:44.763Z,92.70
2018-06-25T10:45:14.161Z,92.00
2018-06-25T10:47:43.295Z,91.50
2018-06-25T10:50:12.527Z,90.70
2018-06-25T10:52:42.241Z,88.90
2018-06-25T10:55:11.574Z,89.20
2018-06-25T10:57:40.733Z,88.50
2018-06-25T11:00:11.059Z,85.10
2018-06-25T11:02:40.579Z,88.00
2018-06-25T11:05:10.409Z,87.80
2018-06-25T11:07:39.822Z,88.60
2018-06-25T11:12:38.695Z,90.70
2018-06-25T11:15:07.978Z,89.90
2018-06-25T11:17:37.126Z,85.70
2018-06-25T11:20:06.681Z,85.50
2018-06-25T11:22:35.786Z,87.60
2018-06-25T11:25:05.139Z,89.30
2018-06-25T11:27:35.160Z,86.80
2018-06-25T11:30:04.439Z,85.50
2018-06-25T11:32:33.631Z,81.10
2018-06-25T11:35:02.923Z,79.00
2018-06-25T11:37:32.142Z,77.20
2018-06-25T11:42:30.846Z,73.60
2018-06-25T11:45:01.147Z,74.40
2018-06-25T11:47:30.306Z,71.00
2018-06-25T11:49:59.772Z,72.50
2018-06-25T11:52:29.234Z,72.50
2018-06-25T11:54:58.327Z,73.40
2018-06-25T11:57:28.045Z,78.60
2018-06-25T11:59:58.588Z,80.50
2018-06-25T12:02:27.711Z,76.10
2018-06-25T12:04:56.774Z,74.10
2018-06-25T12:07:26.082Z,74.80
2018-06-25T12:09:55.951Z,70.20
2018-06-25T12:12:25.039Z,69.60
2018-06-25T12:14:54.247Z,68.30
2018-06-25T12:17:23.524Z,67.70
2018-06-25T12:19:53.247Z,64.00
2018-06-25T12:22:22.309Z,60.80
2018-06-25T12:24:51.425Z,59.20
2018-06-25T12:27:20.506Z,67.50
2018-06-25T12:29:49.647Z,72.30
2018-06-25T12:32:18.963Z,74.20
2018-06-25T12:34:48.066Z,73.20
2018-06-25T12:37:17.213Z,73.70
2018-06-25T12:39:47.602Z,74.00
2018-06-25T12:42:16.704Z,72.30
2018-06-25T12:44:45.805Z,71.10
2018-06-25T12:47:14.900Z,69.80
2018-06-25T12:49:48.095Z,69.00
2018-06-25T12:52:17.208Z,69.10
2018-06-25T12:54:46.322Z,69.60
2018-06-25T12:57:16.312Z,71.10
2018-06-25T13:02:14.911Z,71.20
2018-06-25T13:04:44.353Z,69.60
2018-06-25T13:07:13.609Z,67.30
2018-06-25T13:09:42.778Z,66.80
2018-06-25T13:12:12.963Z,69.30
2018-06-25T13:14:42.334Z,69.10
2018-06-25T13:17:11.662Z,69.90
2018-06-25T13:19:41.367Z,69.00
2018-06-25T13:22:11.258Z,67.20
2018-06-25T13:24:40.579Z,61.30
2018-06-25T13:27:10.299Z,59.10
2018-06-25T13:29:39.534Z,58.00
2018-06-25T13:32:09.250Z,56.30
2018-06-25T13:34:38.359Z,54.60
2018-06-25T13:37:07.468Z,55.10
2018-06-25T13:39:36.674Z,57.40
2018-06-25T13:44:35.268Z,60.10
2018-06-25T13:47:05.054Z,62.30
2018-06-25T13:49:34.611Z,60.20
2018-06-25T13:52:03.706Z,59.20
2018-06-25T13:54:34.440Z,57.30
2018-06-25T13:57:04.026Z,56.30
2018-06-25T13:59:33.330Z,54.70
2018-06-25T14:02:05.030Z,58.40
2018-06-25T14:04:34.554Z,59.70
2018-06-25T14:07:03.792Z,59.90
2018-06-25T14:09:32.902Z,60.10
2018-06-25T14:12:04.982Z,59.10
2018-06-25T14:14:34.539Z,60.80
2018-06-25T14:17:04.619Z,59.10
2018-06-25T14:19:33.894Z,59.00
2018-06-25T14:22:03.586Z,57.10
2018-06-25T14:27:19.710Z,60.60
2018-06-25T14:29:49.026Z,62.50
2018-06-25T14:32:24.079Z,63.10
2018-06-25T14:34:59.858Z,64.30
2018-06-25T14:37:28.986Z,62.20
2018-06-25T14:39:58.090Z,59.50
2018-06-25T14:42:27.182Z,60.10
2018-06-25T14:44:56.327Z,58.40
2018-06-25T14:47:25.428Z,57.30
2018-06-25T14:49:54.562Z,56.00
2018-06-25T14:52:23.834Z,58.60
2018-06-25T14:54:52.903Z,58.90
2018-06-25T14:57:21.974Z,56.70
2018-06-25T14:59:51.062Z,56.20
2018-06-25T15:02:21.282Z,56.90
2018-06-25T15:07:22.751Z,59.90
2018-06-25T15:09:51.806Z,56.30
2018-06-25T15:12:21.399Z,55.90
2018-06-25T15:14:50.886Z,55.70
2018-06-25T15:17:20.263Z,57.20
2018-06-25T15:19:49.626Z,59.40
2018-06-25T15:22:19.382Z,60.40
2018-06-25T15:24:48.598Z,61.00
2018-06-25T15:27:17.655Z,62.70
2018-06-25T15:29:46.806Z,63.10
2018-06-25T15:32:15.915Z,63.30
2018-06-25T15:34:44.985Z,64.40
2018-06-25T15:37:14.270Z,63.10
2018-06-25T15:39:43.460Z,64.50
2018-06-25T15:42:12.566Z,65.20
2018-06-25T15:44:41.792Z,65.00
2018-06-25T15:47:10.943Z,65.40
2018-06-25T15:49:40.745Z,64.00
2018-06-25T15:52:09.845Z,64.30
2018-06-25T15:54:39.425Z,64.30
2018-06-25T15:57:10.646Z,65.20
2018-06-25T15:59:40.064Z,63.30
2018-06-25T16:02:09.409Z,63.00
2018-06-25T16:04:39.245Z,62.00
2018-06-25T16:07:09.002Z,60.90
2018-06-25T16:09:38.584Z,59.40
2018-06-25T16:12:07.877Z,58.60
2018-06-25T16:14:36.965Z,59.00
2018-06-25T16:17:06.683Z,58.20
2018-06-25T16:19:35.779Z,58.40
2018-06-25T16:22:05.203Z,57.30
2018-06-25T16:24:35.151Z,58.30
2018-06-25T16:27:04.823Z,57.40
2018-06-25T16:29:35.158Z,57.40
2018-06-25T16:32:04.612Z,58.60
2018-06-25T16:34:34.213Z,59.50
2018-06-25T16:37:03.901Z,59.70
2018-06-25T16:39:33.735Z,59.40
2018-06-25T16:42:03.099Z,59.00
2018-06-25T16:44:32.470Z,59.00
2018-06-25T16:47:01.899Z,56.90
2018-06-25T16:49:31.809Z,58.10
2018-06-25T16:52:02.147Z,58.90
2018-06-25T16:54:31.338Z,58.80
2018-06-25T16:57:00.447Z,59.80
2018-06-25T16:59:29.633Z,59.60
2018-06-25T17:01:59.042Z,58.60
2018-06-25T17:04:28.598Z,58.10
2018-06-25T17:06:57.726Z,59.40
2018-06-25T17:09:26.829Z,60.30
2018-06-25T17:11:55.946Z,59.30
2018-06-25T17:14:25.098Z,58.50
2018-06-25T17:16:54.202Z,59.50
2018-06-25T17:19:23.290Z,59.50
2018-06-25T17:21:52.432Z,61.00
2018-06-25T17:24:24.799Z,61.50
2018-06-25T17:26:54.244Z,61.20
2018-06-25T17:29:23.707Z,61.70
2018-06-25T17:31:53.174Z,62.50
2018-06-25T17:34:22.525Z,61.90
2018-06-25T17:36:55.022Z,63.80
2018-06-25T17:39:24.535Z,64.00
2018-06-25T17:41:53.681Z,64.50
2018-06-25T17:44:22.829Z,64.70
2018-06-25T17:46:52.727Z,65.30
2018-06-25T17:49:21.818Z,66.10
2018-06-25T17:51:51.268Z,66.40
2018-06-25T17:54:20.403Z,66.90
2018-06-25T17:56:49.490Z,67.40
2018-06-25T17:59:18.738Z,66.80
2018-06-25T18:01:47.822Z,66.00
2018-06-25T18:04:16.902Z,66.00
2018-06-25T18:06:47.067Z,66.30
2018-06-25T18:09:16.310Z,65.90
2018-06-25T18:11:45.908Z,65.90
2018-06-25T18:14:15.371Z,65.80
2018-06-25T18:16:44.902Z,66.30
2018-06-25T18:19:14.834Z,65.70
2018-06-25T18:21:44.218Z,66.40
2018-06-25T18:24:13.518Z,66.80
2018-06-25T18:26:43.190Z,67.70
2018-06-25T18:29:12.260Z,67.10
2018-06-25T18:31:41.735Z,67.50
2018-06-25T18:34:10.905Z,67.10
2018-06-25T18:36:40.050Z,66.70
2018-06-25T18:39:12.098Z,67.90
2018-06-25T18:41:41.338Z,69.10
2018-06-25T18:44:10.662Z,70.30
2018-06-25T18:46:43.034Z,70.80
2018-06-25T18:49:12.182Z,71.50
2018-06-25T18:51:41.334Z,72.20
2018-06-25T18:54:10.888Z,72.10
2018-06-25T18:56:40.140Z,72.50
2018-06-25T18:59:09.230Z,73.20
2018-06-25T19:01:38.340Z,74.30
2018-06-25T19:04:07.465Z,75.20
2018-06-25T19:06:37.298Z,76.30
2018-06-25T19:09:10.930Z,77.00
2018-06-25T19:11:40.298Z,78.00
2018-06-25T19:14:09.704Z,78.30
2018-06-25T19:16:39.542Z,79.00
2018-06-25T19:19:08.895Z,79.50
2018-06-25T19:21:38.602Z,80.40
2018-06-25T19:24:07.962Z,81.40
2018-06-25T19:26:37.471Z,81.80
2018-06-25T19:29:06.750Z,82.30
2018-06-25T19:31:36.298Z,83.50
2018-06-25T19:34:05.902Z,83.70
2018-06-25T19:36:35.760Z,84.70
2018-06-25T19:39:10.690Z,85.30
2018-06-25T19:41:40.130Z,87.00
2018-06-25T19:44:10.019Z,86.20
2018-06-25T19:46:39.383Z,87.80
2018-06-25T19:49:09.252Z,88.90
2018-06-25T19:51:38.863Z,90.00
2018-06-25T19:54:08.882Z,90.30
2018-06-25T19:56:38.231Z,90.50
2018-06-25T19:59:08.123Z,91.00
2018-06-25T20:01:38.030Z,91.10
2018-06-25T20:04:07.579Z,91.40
2018-06-25T20:06:37.022Z,91.90
2018-06-25T20:09:10.781Z,92.50
2018-06-25T20:11:41.458Z,92.60
2018-06-25T20:14:10.673Z,92.90
2018-06-25T20:16:41.955Z,93.80
2018-06-25T20:19:11.013Z,93.90
2018-06-25T20:21:40.578Z,94.30
2018-06-25T20:24:09.742Z,94.60
2018-06-25T20:26:39.706Z,94.80
2018-06-25T20:29:08.866Z,95.10
2018-06-25T20:31:37.955Z,95.40
2018-06-25T20:34:07.104Z,95.60
2018-06-25T20:36:36.870Z,95.90
2018-06-25T20:39:10.452Z,96.00
2018-06-25T20:41:39.662Z,96.40
2018-06-25T20:44:08.868Z,96.70
2018-06-25T20:46:38.090Z,97.20
2018-06-25T20:49:08.905Z,97.80
2018-06-25T20:51:38.670Z,97.60
2018-06-25T20:54:08.150Z,98.10
2018-06-25T20:56:38.616Z,97.90
2018-06-25T20:59:08.394Z,97.60
2018-06-25T21:01:38.307Z,97.80
2018-06-25T21:04:08.198Z,98.10
2018-06-25T21:06:37.374Z,98.20
2018-06-25T21:09:10.516Z,98.30
2018-06-25T21:11:41.026Z,98.70
2018-06-25T21:14:10.326Z,99.50
2018-06-25T21:16:39.697Z,99.90
2018-06-25T21:21:39.532Z,99.90
2018-06-25T21:24:08.894Z,99.90
2018-06-25T21:26:38.351Z,99.90
2018-06-25T21:29:07.759Z,99.90
2018-06-25T21:31:37.143Z,99.90
2018-06-25T21:34:07.743Z,99.90
2018-06-25T21:36:36.933Z,99.90
2018-06-25T21:39:08.437Z,99.90
2018-06-25T21:41:37.594Z,99.90
2018-06-25T21:44:06.718Z,99.90
2018-06-25T21:46:35.969Z,99.90
2018-06-25T21:49:05.159Z,99.90
2018-06-25T21:51:34.279Z,99.90
2018-06-25T21:54:04.327Z,99.90
2018-06-25T21:56:33.514Z,99.90
2018-06-25T21:59:02.688Z,99.90
2018-06-25T22:01:31.914Z,99.90
2018-06-25T22:04:01.337Z,99.90
2018-06-25T22:06:30.486Z,99.90
2018-06-25T22:09:00.251Z,99.90
2018-06-25T22:11:31.827Z,99.90
2018-06-25T22:14:02.011Z,99.90
2018-06-25T22:16:31.902Z,99.90
2018-06-25T22:21:30.655Z,99.90
2018-06-25T22:23:59.969Z,99.90
2018-06-25T22:26:29.314Z,99.90
2018-06-25T22:28:58.873Z,99.90
2018-06-25T22:31:27.982Z,99.90
2018-06-25T22:33:57.091Z,99.90
2018-06-25T22:36:26.211Z,99.90
2018-06-25T22:38:55.546Z,99.90
2018-06-25T22:41:24.658Z,99.90
2018-06-25T22:43:58.761Z,99.90
2018-06-25T22:46:28.209Z,99.90
2018-06-25T22:48:57.386Z,99.90
2018-06-25T22:51:26.506Z,99.90
2018-06-25T22:53:55.898Z,99.90
2018-06-25T22:56:26.191Z,99.90
2018-06-25T22:59:14.135Z,99.90
2018-06-25T23:01:43.310Z,99.90
2018-06-25T23:04:12.476Z,99.90
2018-06-25T23:06:41.598Z,99.90
2018-06-25T23:09:11.682Z,99.90
2018-06-25T23:11:40.874Z,99.90
2018-06-25T23:14:10.561Z,99.90
2018-06-25T23:16:39.823Z,99.90
2018-06-25T23:19:08.992Z,99.90
2018-06-25T23:21:38.674Z,99.90
2018-06-25T23:24:08.413Z,99.90
2018-06-25T23:26:37.567Z,99.90
2018-06-25T23:29:06.671Z,99.90
2018-06-25T23:31:35.762Z,99.90
2018-06-25T23:34:04.886Z,99.90
2018-06-25T23:36:34.004Z,99.90
2018-06-25T23:39:03.110Z,99.90
2018-06-25T23:41:32.229Z,99.90
2018-06-25T23:44:01.336Z,99.90
2018-06-25T23:46:30.464Z,99.90
2018-06-25T23:48:59.568Z,99.90
2018-06-25T23:51:29.378Z,99.90
2018-06-25T23:53:58.520Z,99.90
2018-06-25T23:56:27.711Z,99.90
2018-06-25T23:58:57.176Z,99.90
